createdAt,value
2022-12-16T00:04:32.068Z,41.70
2022-12-16T00:14:39.239Z,41.60
2022-12-16T00:24:46.698Z,37.10
2022-12-16T00:34:53.650Z,42.00
2022-12-16T00:45:02.128Z,37.60
2022-12-16T00:55:09.980Z,28.90
2022-12-16T01:05:20.818Z,32.20
2022-12-16T01:15:27.807Z,35.40
2022-12-16T01:25:35.265Z,26.00
2022-12-16T01:35:56.596Z,28.90
2022-12-16T01:46:04.778Z,32.00
2022-12-16T01:56:16.325Z,26.80
2022-12-16T02:06:23.474Z,30.00
2022-12-16T02:16:33.552Z,33.90
2022-12-16T02:27:16.186Z,30.90
2022-12-16T02:37:34.506Z,37.00
2022-12-16T02:47:42.355Z,36.60
2022-12-16T03:08:18.044Z,38.80
2022-12-16T03:18:25.975Z,35.20
2022-12-16T03:28:34.350Z,32.60
2022-12-16T03:38:42.786Z,41.20
2022-12-16T03:48:48.447Z,34.50
2022-12-16T03:58:54.690Z,32.10
2022-12-16T04:09:01.748Z,29.20
2022-12-16T04:19:29.363Z,36.10
2022-12-16T04:29:36.981Z,30.30
2022-12-16T04:40:02.230Z,27.60
2022-12-16T04:50:24.272Z,32.80
2022-12-16T05:00:47.806Z,28.60
2022-12-16T05:11:12.692Z,28.60
2022-12-16T05:21:37.834Z,36.20
2022-12-16T05:32:03.240Z,32.60
2022-12-16T05:42:28.614Z,28.70
2022-12-16T05:52:53.879Z,27.10
2022-12-16T06:03:18.108Z,32.50
2022-12-16T06:13:42.347Z,28.70
2022-12-16T06:24:07.317Z,25.10
2022-12-16T06:44:57.731Z,33.00
2022-12-16T06:55:22.935Z,29.60
2022-12-16T07:05:48.332Z,28.70
2022-12-16T07:16:13.379Z,29.20
2022-12-16T07:47:26.471Z,30.40
2022-12-16T07:57:51.283Z,24.90
2022-12-16T08:08:16.067Z,26.30
2022-12-16T08:29:27.304Z,34.90
2022-12-16T08:40:04.847Z,33.00
2022-12-16T08:50:34.695Z,42.10
2022-12-16T09:01:06.344Z,36.50
2022-12-16T09:11:32.301Z,35.60
2022-12-16T09:21:57.350Z,47.10
2022-12-16T09:32:21.951Z,41.90
2022-12-16T09:42:48.612Z,38.90
2022-12-16T09:53:18.302Z,44.60
2022-12-16T10:03:48.811Z,49.80
2022-12-16T10:14:17.454Z,45.10
2022-12-16T10:35:06.888Z,49.40
2022-12-16T10:45:32.869Z,49.00
2022-12-16T10:56:10.052Z,58.10
2022-12-16T11:06:36.294Z,54.40
2022-12-16T11:17:01.137Z,44.60
2022-12-16T11:27:43.492Z,43.10
2022-12-16T11:38:11.881Z,51.50
2022-12-16T11:48:35.555Z,49.70
2022-12-16T11:58:59.193Z,44.50
2022-12-16T12:09:22.005Z,36.80
2022-12-16T12:19:44.529Z,37.30
2022-12-16T12:30:16.164Z,42.50
2022-12-16T12:40:44.600Z,41.50
2022-12-16T12:51:13.484Z,39.50
2022-12-16T13:01:46.114Z,34.80
2022-12-16T13:12:54.198Z,32.50
2022-12-16T13:23:18.296Z,39.00
2022-12-16T13:33:44.351Z,38.90
2022-12-16T13:44:10.191Z,42.10
2022-12-16T13:54:36.239Z,40.90
2022-12-16T14:05:06.900Z,37.40
2022-12-16T14:26:05.939Z,46.10
2022-12-16T14:36:48.224Z,43.80
2022-12-16T14:47:12.966Z,42.80
2022-12-16T14:57:40.282Z,34.00
2022-12-16T15:08:06.103Z,37.90
2022-12-16T15:18:32.556Z,44.00
2022-12-16T15:28:59.759Z,45.70
2022-12-16T15:39:29.291Z,44.90
2022-12-16T15:50:03.526Z,40.80
2022-12-16T16:00:44.605Z,35.30
2022-12-16T16:11:09.711Z,37.30
2022-12-16T16:21:34.247Z,42.60
2022-12-16T16:32:03.815Z,46.70
2022-12-16T16:42:27.449Z,50.50
2022-12-16T16:52:52.553Z,44.70
2022-12-16T17:03:17.474Z,44.90
2022-12-16T17:13:41.575Z,48.20
2022-12-16T17:24:06.473Z,54.70
2022-12-16T17:34:31.040Z,40.40
2022-12-16T17:44:56.236Z,45.90
2022-12-16T17:55:21.021Z,43.70
2022-12-16T18:05:46.320Z,40.70
2022-12-16T18:16:10.686Z,57.60
2022-12-16T18:26:34.911Z,59.40
2022-12-16T18:36:59.682Z,51.50
2022-12-16T18:47:24.129Z,43.30
2022-12-16T18:57:49.054Z,59.70
2022-12-16T19:08:14.611Z,51.70
2022-12-16T19:18:39.847Z,52.90
2022-12-16T19:29:03.898Z,49.40
2022-12-16T19:39:29.239Z,43.00
2022-12-16T19:49:54.778Z,48.40
2022-12-16T20:00:20.668Z,52.20
2022-12-16T20:10:44.210Z,55.70
2022-12-16T20:21:09.341Z,49.00
2022-12-16T20:31:34.599Z,59.30
2022-12-16T20:41:59.214Z,53.40
2022-12-16T20:52:23.303Z,49.90
2022-12-16T21:02:48.140Z,54.10
2022-12-16T21:13:13.258Z,49.80
2022-12-16T21:23:38.335Z,57.70
2022-12-16T21:34:03.504Z,59.20
2022-12-16T21:44:28.422Z,53.40
2022-12-16T21:54:53.253Z,54.70
2022-12-16T22:05:19.825Z,50.40
2022-12-16T22:15:45.071Z,61.40
2022-12-16T22:26:15.251Z,49.30
2022-12-16T22:36:39.362Z,48.40
2022-12-16T22:47:04.234Z,48.20
2022-12-16T22:57:29.205Z,52.10
2022-12-16T23:18:18.593Z,50.20
2022-12-16T23:28:43.435Z,56.50
2022-12-16T23:39:08.146Z,55.40
2022-12-16T23:49:33.461Z,48.80
2022-12-16T23:59:58.446Z,54.70
